sensor_id;sensor_type;location;lat;lon;timestamp;pressure;altitude;pressure_sealevel;temperature;humidity
80678;BME280;70042;52.494;5.502;2023-07-30T00:01:24;100936.13;;;22.57;62.88
80678;BME280;70042;52.494;5.502;2023-07-30T00:03:49;100938.78;;;22.57;63.00
80678;BME280;70042;52.494;5.502;2023-07-30T00:06:15;100932.69;;;22.55;62.86
80678;BME280;70042;52.494;5.502;2023-07-30T00:08:40;100936.28;;;22.54;62.81
80678;BME280;70042;52.494;5.502;2023-07-30T00:11:05;100939.81;;;22.55;62.84
80678;BME280;70042;52.494;5.502;2023-07-30T00:13:31;100945.22;;;22.53;63.05
80678;BME280;70042;52.494;5.502;2023-07-30T00:15:56;100940.81;;;22.52;62.95
80678;BME280;70042;52.494;5.502;2023-07-30T00:18:22;100951.47;;;22.52;63.03
80678;BME280;70042;52.494;5.502;2023-07-30T00:20:47;100952.38;;;22.51;63.29
80678;BME280;70042;52.494;5.502;2023-07-30T00:23:13;100950.59;;;22.52;63.30
80678;BME280;70042;52.494;5.502;2023-07-30T00:25:38;100950.59;;;22.52;63.00
80678;BME280;70042;52.494;5.502;2023-07-30T00:28:03;100945.25;;;22.52;63.00
80678;BME280;70042;52.494;5.502;2023-07-30T00:30:29;100937.28;;;22.52;62.97
80678;BME280;70042;52.494;5.502;2023-07-30T00:32:54;100949.66;;;22.53;63.03
80678;BME280;70042;52.494;5.502;2023-07-30T00:35:19;100946.03;;;22.54;63.09
80678;BME280;70042;52.494;5.502;2023-07-30T00:37:45;100948.78;;;22.52;63.21
80678;BME280;70042;52.494;5.502;2023-07-30T00:40:10;100942.59;;;22.52;62.92
80678;BME280;70042;52.494;5.502;2023-07-30T00:42:36;100944.38;;;22.51;63.02
80678;BME280;70042;52.494;5.502;2023-07-30T00:45:01;100942.69;;;22.50;62.94
80678;BME280;70042;52.494;5.502;2023-07-30T00:47:28;100946.25;;;22.49;63.19
80678;BME280;70042;52.494;5.502;2023-07-30T00:49:54;100949.84;;;22.48;63.31
80678;BME280;70042;52.494;5.502;2023-07-30T00:52:21;100948.09;;;22.47;62.92
80678;BME280;70042;52.494;5.502;2023-07-30T00:54:48;100946.41;;;22.46;63.33
80678;BME280;70042;52.494;5.502;2023-07-30T00:57:15;100950.84;;;22.46;63.23
80678;BME280;70042;52.494;5.502;2023-07-30T00:59:42;100949.97;;;22.45;62.89
80678;BME280;70042;52.494;5.502;2023-07-30T01:02:07;100949.13;;;22.45;63.19
80678;BME280;70042;52.494;5.502;2023-07-30T01:04:33;100948.25;;;22.44;63.12
80678;BME280;70042;52.494;5.502;2023-07-30T01:06:59;100942.91;;;22.44;62.92
80678;BME280;70042;52.494;5.502;2023-07-30T01:09:24;100948.25;;;22.44;63.28
80678;BME280;70042;52.494;5.502;2023-07-30T01:11:51;100949.19;;;22.43;63.08
80678;BME280;70042;52.494;5.502;2023-07-30T01:14:18;100948.25;;;22.44;62.93
80678;BME280;70042;52.494;5.502;2023-07-30T01:16:44;100945.59;;;22.44;63.00
80678;BME280;70042;52.494;5.502;2023-07-30T01:19:10;100949.13;;;22.45;62.85
80678;BME280;70042;52.494;5.502;2023-07-30T01:21:36;100958.84;;;22.46;63.03
80678;BME280;70042;52.494;5.502;2023-07-30T01:24:03;100956.19;;;22.46;63.19
80678;BME280;70042;52.494;5.502;2023-07-30T01:26:40;100955.31;;;22.45;62.98
80678;BME280;70042;52.494;5.502;2023-07-30T01:29:14;100956.97;;;22.48;62.86
80678;BME280;70042;52.494;5.502;2023-07-30T01:31:42;100957.06;;;22.46;63.04
80678;BME280;70042;52.494;5.502;2023-07-30T01:34:09;100967.69;;;22.46;62.81
80678;BME280;70042;52.494;5.502;2023-07-30T01:36:37;100966.84;;;22.46;62.86
80678;BME280;70042;52.494;5.502;2023-07-30T01:39:04;100967.69;;;22.46;62.75
80678;BME280;70042;52.494;5.502;2023-07-30T01:41:31;100967.69;;;22.46;62.90
80678;BME280;70042;52.494;5.502;2023-07-30T01:43:56;100972.16;;;22.46;62.83
80678;BME280;70042;52.494;5.502;2023-07-30T01:46:22;100967.84;;;22.43;63.03
80678;BME280;70042;52.494;5.502;2023-07-30T01:48:47;100973.16;;;22.43;62.69
80678;BME280;70042;52.494;5.502;2023-07-30T01:51:12;100967.84;;;22.43;63.01
80678;BME280;70042;52.494;5.502;2023-07-30T01:53:38;100968.75;;;22.42;63.01
80678;BME280;70042;52.494;5.502;2023-07-30T01:56:03;100963.56;;;22.39;62.96
80678;BME280;70042;52.494;5.502;2023-07-30T01:58:29;100973.28;;;22.40;63.05
80678;BME280;70042;52.494;5.502;2023-07-30T02:00:54;100974.06;;;22.42;62.94
80678;BME280;70042;52.494;5.502;2023-07-30T02:03:20;100975.00;;;22.41;62.95
80678;BME280;70042;52.494;5.502;2023-07-30T02:05:45;100971.56;;;22.39;63.01
80678;BME280;70042;52.494;5.502;2023-07-30T02:08:11;100969.81;;;22.38;63.00
80678;BME280;70042;52.494;5.502;2023-07-30T02:10:38;100981.31;;;22.39;63.03
80678;BME280;70042;52.494;5.502;2023-07-30T02:13:03;100973.28;;;22.40;62.81
80678;BME280;70042;52.494;5.502;2023-07-30T02:15:29;100974.22;;;22.39;62.89
80678;BME280;70042;52.494;5.502;2023-07-30T02:17:54;100966.22;;;22.39;62.82
80678;BME280;70042;52.494;5.502;2023-07-30T02:20:20;100972.41;;;22.40;62.90
80678;BME280;70042;52.494;5.502;2023-07-30T02:22:45;100974.06;;;22.42;62.99
80678;BME280;70042;52.494;5.502;2023-07-30T02:25:11;100969.69;;;22.41;62.94
80678;BME280;70042;52.494;5.502;2023-07-30T02:27:36;100973.28;;;22.40;63.00
80678;BME280;70042;52.494;5.502;2023-07-30T02:30:02;100962.78;;;22.37;63.38
80678;BME280;70042;52.494;5.502;2023-07-30T02:32:28;100962.63;;;22.40;62.68
80678;BME280;70042;52.494;5.502;2023-07-30T02:34:54;100957.44;;;22.37;62.92
80678;BME280;70042;52.494;5.502;2023-07-30T02:37:19;100971.69;;;22.36;62.97
80678;BME280;70042;52.494;5.502;2023-07-30T02:39:44;100965.44;;;22.37;62.75
80678;BME280;70042;52.494;5.502;2023-07-30T02:42:10;100969.06;;;22.34;63.41
80678;BME280;70042;52.494;5.502;2023-07-30T02:44:35;100962.81;;;22.36;63.32
80678;BME280;70042;52.494;5.502;2023-07-30T02:47:01;100960.13;;;22.37;63.02
80678;BME280;70042;52.494;5.502;2023-07-30T02:49:26;100965.47;;;22.36;62.83
80678;BME280;70042;52.494;5.502;2023-07-30T02:51:51;100965.56;;;22.34;63.25
80678;BME280;70042;52.494;5.502;2023-07-30T02:54:17;100962.09;;;22.32;62.87
80678;BME280;70042;52.494;5.502;2023-07-30T02:56:43;100958.56;;;22.31;62.96
80678;BME280;70042;52.494;5.502;2023-07-30T02:59:08;100962.16;;;22.30;62.96
80678;BME280;70042;52.494;5.502;2023-07-30T03:01:34;100955.97;;;22.30;63.14
80678;BME280;70042;52.494;5.502;2023-07-30T03:03:59;100955.97;;;22.30;63.12
80678;BME280;70042;52.494;5.502;2023-07-30T03:06:24;100963.97;;;22.30;63.27
80678;BME280;70042;52.494;5.502;2023-07-30T03:08:50;100961.28;;;22.30;63.13
80678;BME280;70042;52.494;5.502;2023-07-30T03:11:15;100961.16;;;22.33;63.11
80678;BME280;70042;52.494;5.502;2023-07-30T03:13:41;100960.38;;;22.31;62.89
80678;BME280;70042;52.494;5.502;2023-07-30T03:16:06;100960.28;;;22.32;62.76
80678;BME280;70042;52.494;5.502;2023-07-30T03:18:32;100959.41;;;22.32;62.92
80678;BME280;70042;52.494;5.502;2023-07-30T03:20:58;100973.47;;;22.36;62.67
80678;BME280;70042;52.494;5.502;2023-07-30T03:23:24;100957.50;;;22.36;62.75
80678;BME280;70042;52.494;5.502;2023-07-30T03:25:50;100970.03;;;22.33;62.70
80678;BME280;70042;52.494;5.502;2023-07-30T03:28:15;100963.81;;;22.33;62.93
80678;BME280;70042;52.494;5.502;2023-07-30T03:30:40;100968.38;;;22.31;62.98
80678;BME280;70042;52.494;5.502;2023-07-30T03:33:06;100963.03;;;22.31;62.72
80678;BME280;70042;52.494;5.502;2023-07-30T03:35:31;100970.06;;;22.32;62.91
80678;BME280;70042;52.494;5.502;2023-07-30T03:37:56;100974.41;;;22.34;62.61
80678;BME280;70042;52.494;5.502;2023-07-30T03:40:22;100962.91;;;22.34;63.04
80678;BME280;70042;52.494;5.502;2023-07-30T03:42:49;100969.06;;;22.34;62.81
80678;BME280;70042;52.494;5.502;2023-07-30T03:45:14;100969.16;;;22.33;62.97
80678;BME280;70042;52.494;5.502;2023-07-30T03:47:40;100963.03;;;22.31;62.91
80678;BME280;70042;52.494;5.502;2023-07-30T03:50:05;100963.75;;;22.34;62.52
80678;BME280;70042;52.494;5.502;2023-07-30T03:52:30;100966.50;;;22.33;62.60
80678;BME280;70042;52.494;5.502;2023-07-30T03:54:56;100966.50;;;22.33;62.79
80678;BME280;70042;52.494;5.502;2023-07-30T03:57:21;100977.28;;;22.30;62.80
80678;BME280;70042;52.494;5.502;2023-07-30T03:59:47;100975.53;;;22.29;62.88
80678;BME280;70042;52.494;5.502;2023-07-30T04:02:12;100977.41;;;22.27;62.96
80678;BME280;70042;52.494;5.502;2023-07-30T04:04:41;100971.28;;;22.25;63.03
80678;BME280;70042;52.494;5.502;2023-07-30T04:07:08;100966.88;;;22.24;63.54
80678;BME280;70042;52.494;5.502;2023-07-30T04:09:34;100969.59;;;22.22;63.01
80678;BME280;70042;52.494;5.502;2023-07-30T04:11:59;100973.94;;;22.25;63.08
80678;BME280;70042;52.494;5.502;2023-07-30T04:14:24;100972.06;;;22.27;62.86
80678;BME280;70042;52.494;5.502;2023-07-30T04:16:50;100969.47;;;22.25;63.03
80678;BME280;70042;52.494;5.502;2023-07-30T04:19:15;100972.94;;;22.27;62.74
80678;BME280;70042;52.494;5.502;2023-07-30T04:21:41;100975.59;;;22.27;63.07
80678;BME280;70042;52.494;5.502;2023-07-30T04:24:06;100979.13;;;22.28;62.98
80678;BME280;70042;52.494;5.502;2023-07-30T04:26:31;100976.47;;;22.28;62.90
80678;BME280;70042;52.494;5.502;2023-07-30T04:28:57;100966.88;;;22.24;63.02
80678;BME280;70042;52.494;5.502;2023-07-30T04:31:22;100977.53;;;22.24;63.11
80678;BME280;70042;52.494;5.502;2023-07-30T04:33:47;100981.94;;;22.25;62.94
80678;BME280;70042;52.494;5.502;2023-07-30T04:36:13;100980.09;;;22.25;62.79
80678;BME280;70042;52.494;5.502;2023-07-30T04:38:38;100981.09;;;22.23;63.17
80678;BME280;70042;52.494;5.502;2023-07-30T04:41:03;100987.34;;;22.22;63.28
80678;BME280;70042;52.494;5.502;2023-07-30T04:43:29;100986.50;;;22.21;63.16
80678;BME280;70042;52.494;5.502;2023-07-30T04:45:55;100988.16;;;22.24;62.87
80678;BME280;70042;52.494;5.502;2023-07-30T04:48:20;100984.69;;;22.22;62.48
80678;BME280;70042;52.494;5.502;2023-07-30T04:50:46;100991.75;;;22.23;62.86
80678;BME280;70042;52.494;5.502;2023-07-30T04:53:11;100997.06;;;22.23;63.31
80678;BME280;70042;52.494;5.502;2023-07-30T04:55:36;100988.16;;;22.24;62.88
80678;BME280;70042;52.494;5.502;2023-07-30T04:58:02;100991.56;;;22.27;62.70
80678;BME280;70042;52.494;5.502;2023-07-30T05:00:28;100986.44;;;22.23;63.06
80678;BME280;70042;52.494;5.502;2023-07-30T05:02:54;100998.94;;;22.21;62.96
80678;BME280;70042;52.494;5.502;2023-07-30T05:05:19;100997.22;;;22.20;62.96
80678;BME280;70042;52.494;5.502;2023-07-30T05:07:44;100992.81;;;22.19;63.18
80678;BME280;70042;52.494;5.502;2023-07-30T05:10:10;100999.06;;;22.18;63.25
80678;BME280;70042;52.494;5.502;2023-07-30T05:12:36;100997.34;;;22.17;63.31
80678;BME280;70042;52.494;5.502;2023-07-30T05:15:02;100986.69;;;22.17;63.25
80678;BME280;70042;52.494;5.502;2023-07-30T05:17:27;100997.34;;;22.17;63.07
80678;BME280;70042;52.494;5.502;2023-07-30T05:19:53;100997.34;;;22.17;63.01
80678;BME280;70042;52.494;5.502;2023-07-30T05:22:18;100996.47;;;22.16;63.25
80678;BME280;70042;52.494;5.502;2023-07-30T05:24:44;100989.31;;;22.18;62.95
80678;BME280;70042;52.494;5.502;2023-07-30T05:27:09;100998.13;;;22.19;62.85
80678;BME280;70042;52.494;5.502;2023-07-30T05:29:35;101002.53;;;22.20;62.79
80678;BME280;70042;52.494;5.502;2023-07-30T05:32:00;100999.06;;;22.18;62.88
80678;BME280;70042;52.494;5.502;2023-07-30T05:34:25;100993.75;;;22.18;63.25
80678;BME280;70042;52.494;5.502;2023-07-30T05:36:51;100997.34;;;22.17;63.30
80678;BME280;70042;52.494;5.502;2023-07-30T05:39:16;101000.91;;;22.16;63.20
80678;BME280;70042;52.494;5.502;2023-07-30T05:41:41;101003.56;;;22.16;63.46
80678;BME280;70042;52.494;5.502;2023-07-30T05:44:07;101008.06;;;22.15;63.31
80678;BME280;70042;52.494;5.502;2023-07-30T05:46:32;101004.53;;;22.15;63.40
80678;BME280;70042;52.494;5.502;2023-07-30T05:48:58;101009.84;;;22.15;63.22
80678;BME280;70042;52.494;5.502;2023-07-30T05:51:23;101004.53;;;22.15;63.20
80678;BME280;70042;52.494;5.502;2023-07-30T05:53:49;101010.72;;;22.15;63.50
80678;BME280;70042;52.494;5.502;2023-07-30T05:56:14;101002.78;;;22.14;63.17
80678;BME280;70042;52.494;5.502;2023-07-30T05:58:43;101008.09;;;22.14;63.32
80678;BME280;70042;52.494;5.502;2023-07-30T06:01:09;101009.03;;;22.13;63.45
80678;BME280;70042;52.494;5.502;2023-07-30T06:03:34;101012.63;;;22.12;63.39
80678;BME280;70042;52.494;5.502;2023-07-30T06:06:01;101014.34;;;22.13;63.24
80678;BME280;70042;52.494;5.502;2023-07-30T06:08:26;101005.53;;;22.12;63.50
80678;BME280;70042;52.494;5.502;2023-07-30T06:10:52;101004.66;;;22.12;63.33
80678;BME280;70042;52.494;5.502;2023-07-30T06:13:17;101010.75;;;22.14;63.42
80678;BME280;70042;52.494;5.502;2023-07-30T06:15:43;101013.44;;;22.14;63.38
80678;BME280;70042;52.494;5.502;2023-07-30T06:18:09;101010.75;;;22.14;63.32
80678;BME280;70042;52.494;5.502;2023-07-30T06:20:34;101014.31;;;22.14;63.56
80678;BME280;70042;52.494;5.502;2023-07-30T06:23:00;101015.16;;;22.15;63.64
80678;BME280;70042;52.494;5.502;2023-07-30T06:25:25;101005.44;;;22.14;63.41
80678;BME280;70042;52.494;5.502;2023-07-30T06:27:51;101001.91;;;22.13;63.21
80678;BME280;70042;52.494;5.502;2023-07-30T06:30:16;101004.56;;;22.13;63.50
80678;BME280;70042;52.494;5.502;2023-07-30T06:32:42;101008.19;;;22.12;63.33
80678;BME280;70042;52.494;5.502;2023-07-30T06:35:07;101010.84;;;22.12;63.54
80678;BME280;70042;52.494;5.502;2023-07-30T06:37:33;101009.03;;;22.13;63.37
80678;BME280;70042;52.494;5.502;2023-07-30T06:39:59;101009.97;;;22.12;63.57
80678;BME280;70042;52.494;5.502;2023-07-30T06:42:25;101001.03;;;22.13;63.57
80678;BME280;70042;52.494;5.502;2023-07-30T06:44:50;101004.56;;;22.13;63.33
80678;BME280;70042;52.494;5.502;2023-07-30T06:47:15;101010.75;;;22.14;63.45
80678;BME280;70042;52.494;5.502;2023-07-30T06:49:41;101007.19;;;22.15;63.47
80678;BME280;70042;52.494;5.502;2023-07-30T06:52:06;101015.16;;;22.15;63.23
80678;BME280;70042;52.494;5.502;2023-07-30T06:54:32;101011.56;;;22.16;63.50
80678;BME280;70042;52.494;5.502;2023-07-30T06:56:58;101015.16;;;22.15;63.48
80678;BME280;70042;52.494;5.502;2023-07-30T06:59:23;101011.63;;;22.14;63.42
80678;BME280;70042;52.494;5.502;2023-07-30T07:01:48;101016.09;;;22.14;63.54
80678;BME280;70042;52.494;5.502;2023-07-30T07:04:14;101018.75;;;22.14;63.30
80678;BME280;70042;52.494;5.502;2023-07-30T07:06:40;101009.91;;;22.13;63.37
80678;BME280;70042;52.494;5.502;2023-07-30T07:09:05;101013.44;;;22.14;63.41
80678;BME280;70042;52.494;5.502;2023-07-30T07:11:30;101013.44;;;22.14;63.25
80678;BME280;70042;52.494;5.502;2023-07-30T07:13:56;101009.84;;;22.15;63.55
80678;BME280;70042;52.494;5.502;2023-07-30T07:16:21;101010.72;;;22.15;63.35
80678;BME280;70042;52.494;5.502;2023-07-30T07:18:47;101010.63;;;22.17;63.65
80678;BME280;70042;52.494;5.502;2023-07-30T07:21:14;101006.19;;;22.17;63.31
80678;BME280;70042;52.494;5.502;2023-07-30T07:23:39;100997.34;;;22.17;63.38
80678;BME280;70042;52.494;5.502;2023-07-30T07:26:05;101006.09;;;22.19;63.39
80678;BME280;70042;52.494;5.502;2023-07-30T07:28:31;101005.19;;;22.20;63.33
80678;BME280;70042;52.494;5.502;2023-07-30T07:30:56;101004.31;;;22.19;63.26
80678;BME280;70042;52.494;5.502;2023-07-30T07:33:22;101008.78;;;22.19;63.39
80678;BME280;70042;52.494;5.502;2023-07-30T07:35:47;101003.44;;;22.19;63.30
80678;BME280;70042;52.494;5.502;2023-07-30T07:38:14;101008.78;;;22.19;63.56
80678;BME280;70042;52.494;5.502;2023-07-30T07:40:39;101017.72;;;22.18;63.42
80678;BME280;70042;52.494;5.502;2023-07-30T07:43:06;101023.03;;;22.18;63.22
80678;BME280;70042;52.494;5.502;2023-07-30T07:45:31;101016.75;;;22.19;63.30
80678;BME280;70042;52.494;5.502;2023-07-30T07:47:57;101022.06;;;22.19;63.43
80678;BME280;70042;52.494;5.502;2023-07-30T07:50:22;101022.06;;;22.19;63.31
80678;BME280;70042;52.494;5.502;2023-07-30T07:52:48;101020.38;;;22.18;63.45
80678;BME280;70042;52.494;5.502;2023-07-30T07:55:13;101015.91;;;22.18;63.19
80678;BME280;70042;52.494;5.502;2023-07-30T07:57:39;101026.47;;;22.20;63.38
80678;BME280;70042;52.494;5.502;2023-07-30T08:00:06;101022.94;;;22.19;63.48
80678;BME280;70042;52.494;5.502;2023-07-30T08:02:31;101019.38;;;22.20;63.43
80678;BME280;70042;52.494;5.502;2023-07-30T08:04:57;101006.97;;;22.19;63.15
80678;BME280;70042;52.494;5.502;2023-07-30T08:07:22;101014.91;;;22.21;63.25
80678;BME280;70042;52.494;5.502;2023-07-30T08:09:48;101010.47;;;22.21;63.63
80678;BME280;70042;52.494;5.502;2023-07-30T08:12:13;101010.34;;;22.24;63.13
80678;BME280;70042;52.494;5.502;2023-07-30T08:14:39;101013.75;;;22.28;63.15
80678;BME280;70042;52.494;5.502;2023-07-30T08:17:04;101014.53;;;22.30;63.15
80678;BME280;70042;52.494;5.502;2023-07-30T08:19:30;101021.66;;;22.29;63.00
80678;BME280;70042;52.494;5.502;2023-07-30T08:21:55;101021.53;;;22.32;63.37
80678;BME280;70042;52.494;5.502;2023-07-30T08:24:22;101017.84;;;22.35;63.01
80678;BME280;70042;52.494;5.502;2023-07-30T08:26:48;101019.47;;;22.39;63.02
80678;BME280;70042;52.494;5.502;2023-07-30T08:29:14;101022.09;;;22.41;62.89
80678;BME280;70042;52.494;5.502;2023-07-30T08:31:40;101020.13;;;22.44;63.29
80678;BME280;70042;52.494;5.502;2023-07-30T08:34:05;101017.34;;;22.47;63.34
80678;BME280;70042;52.494;5.502;2023-07-30T08:36:31;101029.69;;;22.50;63.16
80678;BME280;70042;52.494;5.502;2023-07-30T08:38:57;101022.56;;;22.50;62.85
80678;BME280;70042;52.494;5.502;2023-07-30T08:41:23;101026.03;;;22.52;63.10
80678;BME280;70042;52.494;5.502;2023-07-30T08:43:48;101027.69;;;22.55;62.94
80678;BME280;70042;52.494;5.502;2023-07-30T08:46:17;101032.97;;;22.56;62.71
80678;BME280;70042;52.494;5.502;2023-07-30T08:48:43;101025.75;;;22.58;62.92
80678;BME280;70042;52.494;5.502;2023-07-30T08:51:08;101024.75;;;22.61;62.91
80678;BME280;70042;52.494;5.502;2023-07-30T08:53:34;101034.41;;;22.63;62.50
80678;BME280;70042;52.494;5.502;2023-07-30T08:56:01;101031.63;;;22.66;62.36
80678;BME280;70042;52.494;5.502;2023-07-30T08:58:27;101027.00;;;22.71;61.95
80678;BME280;70042;52.494;5.502;2023-07-30T09:00:55;101031.19;;;22.77;62.09
80678;BME280;70042;52.494;5.502;2023-07-30T09:03:23;101041.94;;;22.75;61.59
80678;BME280;70042;52.494;5.502;2023-07-30T09:05:50;101040.97;;;22.76;61.77
80678;BME280;70042;52.494;5.502;2023-07-30T09:08:17;101056.97;;;22.76;61.56
80678;BME280;70042;52.494;5.502;2023-07-30T09:10:43;101055.25;;;22.75;61.60
80678;BME280;70042;52.494;5.502;2023-07-30T09:13:08;101061.38;;;22.77;61.48
80678;BME280;70042;52.494;5.502;2023-07-30T09:15:38;101050.50;;;22.82;61.38
80678;BME280;70042;52.494;5.502;2023-07-30T09:18:04;101055.69;;;22.85;61.15
80678;BME280;70042;52.494;5.502;2023-07-30T09:20:41;101067.09;;;22.89;61.17
80678;BME280;70042;52.494;5.502;2023-07-30T09:23:08;101059.03;;;22.90;61.19
80678;BME280;70042;52.494;5.502;2023-07-30T09:25:37;101063.50;;;22.90;61.36
80678;BME280;70042;52.494;5.502;2023-07-30T09:28:05;101065.09;;;22.94;61.64
80678;BME280;70042;52.494;5.502;2023-07-30T09:30:31;101067.63;;;22.97;61.65
80678;BME280;70042;52.494;5.502;2023-07-30T09:32:58;101076.28;;;23.02;62.01
80678;BME280;70042;52.494;5.502;2023-07-30T09:35:25;101066.38;;;23.05;61.42
80678;BME280;70042;52.494;5.502;2023-07-30T09:38:01;101062.81;;;23.05;61.83
80678;BME280;70042;52.494;5.502;2023-07-30T09:40:32;101080.69;;;23.03;61.95
80678;BME280;70042;52.494;5.502;2023-07-30T09:42:58;101079.81;;;23.02;61.84
80678;BME280;70042;52.494;5.502;2023-07-30T09:45:25;101090.56;;;23.01;61.99
80678;BME280;70042;52.494;5.502;2023-07-30T09:47:52;101103.81;;;23.02;62.05
80678;BME280;70042;52.494;5.502;2023-07-30T09:50:18;101095.91;;;23.01;61.86
80678;BME280;70042;52.494;5.502;2023-07-30T09:52:44;101099.13;;;23.07;61.89
80678;BME280;70042;52.494;5.502;2023-07-30T09:55:10;101098.94;;;23.12;62.02
80678;BME280;70042;52.494;5.502;2023-07-30T09:57:36;101103.22;;;23.16;61.93
80678;BME280;70042;52.494;5.502;2023-07-30T10:00:06;101106.63;;;23.19;61.77
80678;BME280;70042;52.494;5.502;2023-07-30T10:02:37;101099.34;;;23.23;61.71
80678;BME280;70042;52.494;5.502;2023-07-30T10:05:17;101104.41;;;23.29;62.18
80678;BME280;70042;52.494;5.502;2023-07-30T10:08:07;101122.88;;;23.33;61.80
80678;BME280;70042;52.494;5.502;2023-07-30T10:10:34;101113.81;;;23.37;61.94
80678;BME280;70042;52.494;5.502;2023-07-30T10:13:00;101118.03;;;23.43;62.05
80678;BME280;70042;52.494;5.502;2023-07-30T10:15:28;101117.97;;;23.45;61.80
80678;BME280;70042;52.494;5.502;2023-07-30T10:17:56;101125.75;;;23.49;62.95
80678;BME280;70042;52.494;5.502;2023-07-30T10:20:26;101116.00;;;23.48;61.73
80678;BME280;70042;52.494;5.502;2023-07-30T10:22:55;101117.69;;;23.51;61.42
80678;BME280;70042;52.494;5.502;2023-07-30T10:25:25;101119.34;;;23.53;61.40
80678;BME280;70042;52.494;5.502;2023-07-30T10:27:52;101108.59;;;23.55;61.75
80678;BME280;70042;52.494;5.502;2023-07-30T10:30:21;101115.63;;;23.57;61.51
80678;BME280;70042;52.494;5.502;2023-07-30T10:35:43;101122.38;;;23.64;61.53
80678;BME280;70042;52.494;5.502;2023-07-30T10:38:20;101111.56;;;23.67;61.21
80678;BME280;70042;52.494;5.502;2023-07-30T10:41:09;101116.75;;;23.70;61.24
80678;BME280;70042;52.494;5.502;2023-07-30T10:43:40;101125.44;;;23.75;61.28
80678;BME280;70042;52.494;5.502;2023-07-30T10:46:07;101116.22;;;23.82;60.76
80678;BME280;70042;52.494;5.502;2023-07-30T10:48:35;101117.31;;;23.78;61.12
80678;BME280;70042;52.494;5.502;2023-07-30T10:51:05;101123.50;;;23.79;60.90
80678;BME280;70042;52.494;5.502;2023-07-30T10:53:31;101125.44;;;23.75;61.03
80678;BME280;70042;52.494;5.502;2023-07-30T10:56:00;101118.22;;;23.77;60.87
80678;BME280;70042;52.494;5.502;2023-07-30T10:58:32;101114.91;;;23.72;60.69
80678;BME280;70042;52.494;5.502;2023-07-30T11:00:58;101126.47;;;23.73;60.61
80678;BME280;70042;52.494;5.502;2023-07-30T11:03:26;101134.75;;;23.67;60.33
80678;BME280;70042;52.494;5.502;2023-07-30T11:05:55;101130.34;;;23.66;59.88
80678;BME280;70042;52.494;5.502;2023-07-30T11:08:35;101136.81;;;23.60;59.49
80678;BME280;70042;52.494;5.502;2023-07-30T11:11:01;101142.28;;;23.57;59.06
80678;BME280;70042;52.494;5.502;2023-07-30T11:13:27;101144.97;;;23.57;58.72
80678;BME280;70042;52.494;5.502;2023-07-30T11:15:53;101157.34;;;23.58;58.52
80678;BME280;70042;52.494;5.502;2023-07-30T11:18:18;101138.75;;;23.57;58.07
80678;BME280;70042;52.494;5.502;2023-07-30T11:20:43;101134.34;;;23.56;57.56
80678;BME280;70042;52.494;5.502;2023-07-30T11:23:21;101133.63;;;23.52;57.29
80678;BME280;70042;52.494;5.502;2023-07-30T11:25:48;101140.81;;;23.50;57.69
80678;BME280;70042;52.494;5.502;2023-07-30T11:28:26;101130.16;;;23.50;57.65
80678;BME280;70042;52.494;5.502;2023-07-30T11:30:52;101142.44;;;23.54;57.53
80678;BME280;70042;52.494;5.502;2023-07-30T11:33:17;101132.59;;;23.55;56.99
80678;BME280;70042;52.494;5.502;2023-07-30T11:35:43;101143.13;;;23.58;56.98
80678;BME280;70042;52.494;5.502;2023-07-30T11:38:09;101145.59;;;23.62;56.61
80678;BME280;70042;52.494;5.502;2023-07-30T11:40:34;101153.34;;;23.68;56.38
80678;BME280;70042;52.494;5.502;2023-07-30T11:43:00;101143.44;;;23.70;55.73
80678;BME280;70042;52.494;5.502;2023-07-30T11:45:26;101150.34;;;23.76;55.96
80678;BME280;70042;52.494;5.502;2023-07-30T11:47:51;101158.94;;;23.82;55.32
80678;BME280;70042;52.494;5.502;2023-07-30T11:50:17;101160.50;;;23.86;55.18
80678;BME280;70042;52.494;5.502;2023-07-30T11:52:56;101160.34;;;23.89;54.97
80678;BME280;70042;52.494;5.502;2023-07-30T11:55:22;101164.81;;;23.89;54.10
80678;BME280;70042;52.494;5.502;2023-07-30T11:57:50;101163.97;;;23.88;54.33
80678;BME280;70042;52.494;5.502;2023-07-30T12:00:15;101164.75;;;23.90;54.27
80678;BME280;70042;52.494;5.502;2023-07-30T12:02:41;101163.97;;;23.88;54.39
80678;BME280;70042;52.494;5.502;2023-07-30T12:05:10;101176.44;;;23.88;54.62
80678;BME280;70042;52.494;5.502;2023-07-30T12:07:40;101172.00;;;23.88;54.79
80678;BME280;70042;52.494;5.502;2023-07-30T12:10:11;101172.78;;;23.90;56.59
80678;BME280;70042;52.494;5.502;2023-07-30T12:12:43;101174.38;;;23.95;55.75
80678;BME280;70042;52.494;5.502;2023-07-30T12:15:10;101174.97;;;24.01;55.55
80678;BME280;70042;52.494;5.502;2023-07-30T12:17:37;101179.16;;;24.07;55.62
80678;BME280;70042;52.494;5.502;2023-07-30T12:20:03;101170.06;;;24.11;55.78
80678;BME280;70042;52.494;5.502;2023-07-30T12:22:32;101182.34;;;24.15;55.81
80678;BME280;70042;52.494;5.502;2023-07-30T12:25:00;101186.59;;;24.19;55.92
80678;BME280;70042;52.494;5.502;2023-07-30T12:27:25;101176.72;;;24.21;55.99
80678;BME280;70042;52.494;5.502;2023-07-30T12:29:51;101188.25;;;24.21;55.90
80678;BME280;70042;52.494;5.502;2023-07-30T12:32:16;101187.91;;;24.29;55.88
80678;BME280;70042;52.494;5.502;2023-07-30T12:34:42;101172.69;;;24.31;56.13
80678;BME280;70042;52.494;5.502;2023-07-30T12:37:07;101178.88;;;24.31;56.33
80678;BME280;70042;52.494;5.502;2023-07-30T12:39:32;101183.06;;;24.37;56.16
80678;BME280;70042;52.494;5.502;2023-07-30T12:41:58;101173.53;;;24.31;56.34
80678;BME280;70042;52.494;5.502;2023-07-30T12:44:23;101187.78;;;24.32;56.49
80678;BME280;70042;52.494;5.502;2023-07-30T12:46:49;101183.66;;;24.25;55.82
80678;BME280;70042;52.494;5.502;2023-07-30T12:49:14;101181.41;;;24.16;53.37